SKCG/CTG METAR and TAF weather

Enter ICAO airport designator
Station Type Date Time Source
SKCG METAR 2020/02/27 14:00 UTC NOAA

SKCG 271400Z 10004KT 9999 SCT015 29/24 A2993


Station Type Date Time Source
SKCG Decoded METAR 2020/02/27 14:00 UTC NOAA

Cartagena / Rafael Nunez, Colombia (SKCG) 10-27N 075-31W 12M
Feb 27, 2020 - 09:00 AM EST / 2020.02.27 1400 UTC
Wind: from the E (100 degrees) at 5 MPH (4 KT):0
Visibility: greater than 7 mile(s):0
Sky conditions: partly cloudy
Temperature: 84 F (29 C)
Dew Point: 75 F (24 C)
Relative Humidity: 74%
Pressure (altimeter): 29.93 in. Hg (1013 hPa)
ob: SKCG 271400Z 10004KT 9999 SCT015 29/24 A2993
cycle: 14

Station Type Date Time Source
SKCG TAF 2020/02/27 12:44 UTC NOAA

TAF SKCG 271030Z 2712/2812 01012KT 9999 FEW017 SCT100
BECMG 2804/2806 02004KT TX32/2718Z TN24/2811Z

Example: see airport list